sensor_id;sensor_type;location;lat;lon;timestamp;P1;durP1;ratioP1;P2;durP2;ratioP2
2019;SDS011;1014;51.960;8.542;2023-04-15T00:01:38;23.50;;;21.90;;
2019;SDS011;1014;51.960;8.542;2023-04-15T00:04:05;24.77;;;22.97;;
2019;SDS011;1014;51.960;8.542;2023-04-15T00:06:32;22.37;;;21.13;;
2019;SDS011;1014;51.960;8.542;2023-04-15T00:09:00;23.80;;;22.30;;
2019;SDS011;1014;51.960;8.542;2023-04-15T00:11:27;23.30;;;21.90;;
2019;SDS011;1014;51.960;8.542;2023-04-15T00:13:54;24.13;;;22.47;;
2019;SDS011;1014;51.960;8.542;2023-04-15T00:16:22;23.37;;;21.87;;
2019;SDS011;1014;51.960;8.542;2023-04-15T00:18:49;24.37;;;22.77;;
2019;SDS011;1014;51.960;8.542;2023-04-15T00:21:16;24.10;;;22.17;;
2019;SDS011;1014;51.960;8.542;2023-04-15T00:23:43;24.20;;;22.50;;
2019;SDS011;1014;51.960;8.542;2023-04-15T00:26:15;23.03;;;21.47;;
2019;SDS011;1014;51.960;8.542;2023-04-15T00:28:43;23.97;;;22.47;;
2019;SDS011;1014;51.960;8.542;2023-04-15T00:31:10;23.63;;;22.20;;
2019;SDS011;1014;51.960;8.542;2023-04-15T00:33:37;23.50;;;22.00;;
2019;SDS011;1014;51.960;8.542;2023-04-15T00:36:05;23.67;;;22.27;;
2019;SDS011;1014;51.960;8.542;2023-04-15T00:38:32;24.97;;;23.27;;
2019;SDS011;1014;51.960;8.542;2023-04-15T00:40:59;23.53;;;22.10;;
2019;SDS011;1014;51.960;8.542;2023-04-15T00:43:29;23.53;;;22.13;;
2019;SDS011;1014;51.960;8.542;2023-04-15T00:45:56;22.73;;;21.20;;
2019;SDS011;1014;51.960;8.542;2023-04-15T00:48:24;24.33;;;22.60;;
2019;SDS011;1014;51.960;8.542;2023-04-15T00:50:52;24.70;;;23.07;;
2019;SDS011;1014;51.960;8.542;2023-04-15T00:53:19;23.90;;;22.40;;
2019;SDS011;1014;51.960;8.542;2023-04-15T00:55:46;24.33;;;22.73;;
2019;SDS011;1014;51.960;8.542;2023-04-15T00:58:13;23.20;;;21.70;;
2019;SDS011;1014;51.960;8.542;2023-04-15T01:00:41;22.77;;;21.17;;
2019;SDS011;1014;51.960;8.542;2023-04-15T01:03:08;23.20;;;21.77;;
2019;SDS011;1014;51.960;8.542;2023-04-15T01:05:35;24.43;;;22.50;;
2019;SDS011;1014;51.960;8.542;2023-04-15T01:08:03;24.30;;;22.50;;
2019;SDS011;1014;51.960;8.542;2023-04-15T01:10:30;23.70;;;22.10;;
2019;SDS011;1014;51.960;8.542;2023-04-15T01:12:57;23.92;;;22.42;;
2019;SDS011;1014;51.960;8.542;2023-04-15T01:15:24;24.40;;;22.70;;
2019;SDS011;1014;51.960;8.542;2023-04-15T01:17:53;23.97;;;22.47;;
2019;SDS011;1014;51.960;8.542;2023-04-15T01:20:20;24.60;;;22.90;;
2019;SDS011;1014;51.960;8.542;2023-04-15T01:22:47;22.80;;;21.30;;
2019;SDS011;1014;51.960;8.542;2023-04-15T01:25:16;23.27;;;21.77;;
2019;SDS011;1014;51.960;8.542;2023-04-15T01:27:44;23.60;;;22.13;;
2019;SDS011;1014;51.960;8.542;2023-04-15T01:30:12;25.50;;;23.90;;
2019;SDS011;1014;51.960;8.542;2023-04-15T01:32:39;23.73;;;22.23;;
2019;SDS011;1014;51.960;8.542;2023-04-15T01:35:06;24.23;;;22.43;;
2019;SDS011;1014;51.960;8.542;2023-04-15T01:37:33;23.70;;;22.10;;
2019;SDS011;1014;51.960;8.542;2023-04-15T01:40:00;24.73;;;23.03;;
2019;SDS011;1014;51.960;8.542;2023-04-15T01:42:28;24.60;;;23.00;;
2019;SDS011;1014;51.960;8.542;2023-04-15T01:44:56;25.30;;;23.60;;
2019;SDS011;1014;51.960;8.542;2023-04-15T01:47:23;26.53;;;24.40;;
2019;SDS011;1014;51.960;8.542;2023-04-15T01:49:51;24.80;;;23.10;;
2019;SDS011;1014;51.960;8.542;2023-04-15T01:52:18;29.77;;;27.27;;
2019;SDS011;1014;51.960;8.542;2023-04-15T01:54:45;25.00;;;23.40;;
2019;SDS011;1014;51.960;8.542;2023-04-15T01:57:12;26.30;;;24.43;;
2019;SDS011;1014;51.960;8.542;2023-04-15T01:59:40;26.17;;;24.37;;
2019;SDS011;1014;51.960;8.542;2023-04-15T02:02:08;26.13;;;24.33;;
2019;SDS011;1014;51.960;8.542;2023-04-15T02:04:36;26.90;;;24.80;;
2019;SDS011;1014;51.960;8.542;2023-04-15T02:07:03;28.10;;;25.70;;
2019;SDS011;1014;51.960;8.542;2023-04-15T02:09:31;26.23;;;24.45;;
2019;SDS011;1014;51.960;8.542;2023-04-15T02:11:58;28.23;;;25.83;;
2019;SDS011;1014;51.960;8.542;2023-04-15T02:14:26;28.73;;;26.60;;
2019;SDS011;1014;51.960;8.542;2023-04-15T02:16:52;27.87;;;25.67;;
2019;SDS011;1014;51.960;8.542;2023-04-15T02:19:24;25.40;;;23.50;;
2019;SDS011;1014;51.960;8.542;2023-04-15T02:21:51;27.27;;;25.17;;
2019;SDS011;1014;51.960;8.542;2023-04-15T02:24:18;28.23;;;26.17;;
2019;SDS011;1014;51.960;8.542;2023-04-15T02:26:45;27.85;;;25.77;;
2019;SDS011;1014;51.960;8.542;2023-04-15T02:29:12;29.00;;;26.80;;
2019;SDS011;1014;51.960;8.542;2023-04-15T02:31:39;28.10;;;25.70;;
2019;SDS011;1014;51.960;8.542;2023-04-15T02:34:06;25.87;;;24.10;;
2019;SDS011;1014;51.960;8.542;2023-04-15T02:36:34;28.90;;;26.90;;
2019;SDS011;1014;51.960;8.542;2023-04-15T02:39:01;27.83;;;25.87;;
2019;SDS011;1014;51.960;8.542;2023-04-15T02:41:28;29.07;;;26.80;;
2019;SDS011;1014;51.960;8.542;2023-04-15T02:43:55;27.27;;;25.37;;
2019;SDS011;1014;51.960;8.542;2023-04-15T02:46:22;27.53;;;25.40;;
2019;SDS011;1014;51.960;8.542;2023-04-15T02:48:51;27.42;;;25.52;;
2019;SDS011;1014;51.960;8.542;2023-04-15T02:51:19;26.97;;;24.87;;
2019;SDS011;1014;51.960;8.542;2023-04-15T02:53:48;28.50;;;26.40;;
2019;SDS011;1014;51.960;8.542;2023-04-15T02:56:15;28.00;;;26.00;;
2019;SDS011;1014;51.960;8.542;2023-04-15T02:58:43;28.80;;;26.50;;
2019;SDS011;1014;51.960;8.542;2023-04-15T03:01:10;28.40;;;26.27;;
2019;SDS011;1014;51.960;8.542;2023-04-15T03:03:37;27.37;;;25.23;;
2019;SDS011;1014;51.960;8.542;2023-04-15T03:06:04;26.47;;;24.70;;
2019;SDS011;1014;51.960;8.542;2023-04-15T03:08:32;27.77;;;25.57;;
2019;SDS011;1014;51.960;8.542;2023-04-15T03:11:01;28.80;;;26.53;;
2019;SDS011;1014;51.960;8.542;2023-04-15T03:13:28;26.67;;;24.87;;
2019;SDS011;1014;51.960;8.542;2023-04-15T03:15:55;26.87;;;25.00;;
2019;SDS011;1014;51.960;8.542;2023-04-15T03:18:22;26.33;;;24.43;;
2019;SDS011;1014;51.960;8.542;2023-04-15T03:20:49;26.80;;;24.90;;
2019;SDS011;1014;51.960;8.542;2023-04-15T03:23:16;25.43;;;23.63;;
2019;SDS011;1014;51.960;8.542;2023-04-15T03:25:44;26.73;;;24.83;;
2019;SDS011;1014;51.960;8.542;2023-04-15T03:28:13;26.23;;;24.33;;
2019;SDS011;1014;51.960;8.542;2023-04-15T03:30:40;27.57;;;25.37;;
2019;SDS011;1014;51.960;8.542;2023-04-15T03:33:07;26.87;;;24.93;;
2019;SDS011;1014;51.960;8.542;2023-04-15T03:35:34;27.23;;;25.10;;
2019;SDS011;1014;51.960;8.542;2023-04-15T03:38:01;28.17;;;25.97;;
2019;SDS011;1014;51.960;8.542;2023-04-15T03:40:28;26.33;;;24.43;;
2019;SDS011;1014;51.960;8.542;2023-04-15T03:42:55;26.10;;;24.10;;
2019;SDS011;1014;51.960;8.542;2023-04-15T03:45:24;25.73;;;23.93;;
2019;SDS011;1014;51.960;8.542;2023-04-15T03:47:51;24.53;;;22.73;;
2019;SDS011;1014;51.960;8.542;2023-04-15T03:50:18;25.80;;;23.90;;
2019;SDS011;1014;51.960;8.542;2023-04-15T03:52:45;26.40;;;24.40;;
2019;SDS011;1014;51.960;8.542;2023-04-15T03:55:12;25.93;;;24.10;;
2019;SDS011;1014;51.960;8.542;2023-04-15T03:57:39;26.03;;;24.20;;
2019;SDS011;1014;51.960;8.542;2023-04-15T04:00:08;27.67;;;25.67;;
2019;SDS011;1014;51.960;8.542;2023-04-15T04:02:36;27.57;;;25.20;;
2019;SDS011;1014;51.960;8.542;2023-04-15T04:05:03;26.17;;;24.07;;
2019;SDS011;1014;51.960;8.542;2023-04-15T04:07:31;27.20;;;25.10;;
2019;SDS011;1014;51.960;8.542;2023-04-15T04:09:57;26.10;;;24.20;;
2019;SDS011;1014;51.960;8.542;2023-04-15T04:12:25;28.38;;;25.95;;
2019;SDS011;1014;51.960;8.542;2023-04-15T04:14:52;27.87;;;25.67;;
2019;SDS011;1014;51.960;8.542;2023-04-15T04:17:19;26.60;;;24.70;;
2019;SDS011;1014;51.960;8.542;2023-04-15T04:19:47;27.57;;;25.30;;
2019;SDS011;1014;51.960;8.542;2023-04-15T04:22:14;27.50;;;25.27;;
2019;SDS011;1014;51.960;8.542;2023-04-15T04:24:41;28.17;;;25.80;;
2019;SDS011;1014;51.960;8.542;2023-04-15T04:27:08;28.50;;;26.20;;
2019;SDS011;1014;51.960;8.542;2023-04-15T04:29:35;27.97;;;25.67;;
2019;SDS011;1014;51.960;8.542;2023-04-15T04:32:02;28.30;;;25.97;;
2019;SDS011;1014;51.960;8.542;2023-04-15T04:34:29;27.83;;;25.70;;
2019;SDS011;1014;51.960;8.542;2023-04-15T04:36:58;29.10;;;26.67;;
2019;SDS011;1014;51.960;8.542;2023-04-15T04:39:25;29.30;;;26.77;;
2019;SDS011;1014;51.960;8.542;2023-04-15T04:41:52;28.60;;;26.33;;
2019;SDS011;1014;51.960;8.542;2023-04-15T04:44:19;27.97;;;25.77;;
2019;SDS011;1014;51.960;8.542;2023-04-15T04:46:48;28.60;;;26.40;;
2019;SDS011;1014;51.960;8.542;2023-04-15T04:49:15;29.40;;;27.10;;
2019;SDS011;1014;51.960;8.542;2023-04-15T04:51:42;29.57;;;27.10;;
2019;SDS011;1014;51.960;8.542;2023-04-15T04:54:12;30.03;;;27.50;;
2019;SDS011;1014;51.960;8.542;2023-04-15T04:56:40;29.25;;;26.92;;
2019;SDS011;1014;51.960;8.542;2023-04-15T04:59:07;29.15;;;26.73;;
2019;SDS011;1014;51.960;8.542;2023-04-15T05:01:34;28.90;;;26.70;;
2019;SDS011;1014;51.960;8.542;2023-04-15T05:04:01;31.00;;;28.40;;
2019;SDS011;1014;51.960;8.542;2023-04-15T05:06:29;28.20;;;26.00;;
2019;SDS011;1014;51.960;8.542;2023-04-15T05:08:56;30.13;;;27.73;;
2019;SDS011;1014;51.960;8.542;2023-04-15T05:11:25;30.87;;;27.87;;
2019;SDS011;1014;51.960;8.542;2023-04-15T05:13:52;29.97;;;27.47;;
2019;SDS011;1014;51.960;8.542;2023-04-15T05:16:19;31.23;;;28.47;;
2019;SDS011;1014;51.960;8.542;2023-04-15T05:18:46;32.30;;;29.60;;
2019;SDS011;1014;51.960;8.542;2023-04-15T05:21:13;30.90;;;28.37;;
2019;SDS011;1014;51.960;8.542;2023-04-15T05:23:40;31.70;;;28.90;;
2019;SDS011;1014;51.960;8.542;2023-04-15T05:26:07;30.30;;;27.80;;
2019;SDS011;1014;51.960;8.542;2023-04-15T05:28:36;29.85;;;27.35;;
2019;SDS011;1014;51.960;8.542;2023-04-15T05:31:03;31.92;;;29.23;;
2019;SDS011;1014;51.960;8.542;2023-04-15T05:33:31;31.55;;;28.95;;
2019;SDS011;1014;51.960;8.542;2023-04-15T05:35:58;30.53;;;27.83;;
2019;SDS011;1014;51.960;8.542;2023-04-15T05:38:25;29.77;;;27.07;;
2019;SDS011;1014;51.960;8.542;2023-04-15T05:40:52;33.30;;;30.10;;
2019;SDS011;1014;51.960;8.542;2023-04-15T05:43:19;29.70;;;27.40;;
2019;SDS011;1014;51.960;8.542;2023-04-15T05:45:48;32.30;;;29.40;;
2019;SDS011;1014;51.960;8.542;2023-04-15T05:48:15;31.10;;;28.30;;
2019;SDS011;1014;51.960;8.542;2023-04-15T05:50:42;30.20;;;27.77;;
2019;SDS011;1014;51.960;8.542;2023-04-15T05:53:09;31.30;;;28.67;;
2019;SDS011;1014;51.960;8.542;2023-04-15T05:55:36;30.57;;;27.97;;
2019;SDS011;1014;51.960;8.542;2023-04-15T05:58:03;29.50;;;26.70;;
2019;SDS011;1014;51.960;8.542;2023-04-15T06:00:30;26.93;;;24.87;;
2019;SDS011;1014;51.960;8.542;2023-04-15T06:02:59;29.70;;;27.13;;
2019;SDS011;1014;51.960;8.542;2023-04-15T06:05:26;30.03;;;27.57;;
2019;SDS011;1014;51.960;8.542;2023-04-15T06:07:53;29.47;;;27.07;;
2019;SDS011;1014;51.960;8.542;2023-04-15T06:10:20;31.30;;;28.70;;
2019;SDS011;1014;51.960;8.542;2023-04-15T06:12:47;29.30;;;26.97;;
2019;SDS011;1014;51.960;8.542;2023-04-15T06:15:14;29.10;;;26.83;;
2019;SDS011;1014;51.960;8.542;2023-04-15T06:17:41;27.87;;;25.63;;
2019;SDS011;1014;51.960;8.542;2023-04-15T06:20:10;28.50;;;26.17;;
2019;SDS011;1014;51.960;8.542;2023-04-15T06:22:38;28.67;;;26.57;;
2019;SDS011;1014;51.960;8.542;2023-04-15T06:25:05;29.10;;;26.70;;
2019;SDS011;1014;51.960;8.542;2023-04-15T06:27:33;27.40;;;25.30;;
2019;SDS011;1014;51.960;8.542;2023-04-15T06:30:00;29.33;;;26.77;;
2019;SDS011;1014;51.960;8.542;2023-04-15T06:32:28;27.23;;;25.00;;
2019;SDS011;1014;51.960;8.542;2023-04-15T06:34:55;28.23;;;25.93;;
2019;SDS011;1014;51.960;8.542;2023-04-15T06:37:23;29.97;;;27.43;;
2019;SDS011;1014;51.960;8.542;2023-04-15T06:39:50;28.87;;;26.57;;
2019;SDS011;1014;51.960;8.542;2023-04-15T06:42:17;29.67;;;27.27;;
2019;SDS011;1014;51.960;8.542;2023-04-15T06:44:44;28.93;;;26.70;;
2019;SDS011;1014;51.960;8.542;2023-04-15T06:47:11;31.27;;;28.50;;
2019;SDS011;1014;51.960;8.542;2023-04-15T06:49:39;34.50;;;31.40;;
2019;SDS011;1014;51.960;8.542;2023-04-15T06:52:07;35.03;;;31.90;;
2019;SDS011;1014;51.960;8.542;2023-04-15T06:54:35;36.60;;;33.07;;
2019;SDS011;1014;51.960;8.542;2023-04-15T06:57:02;36.20;;;32.90;;
2019;SDS011;1014;51.960;8.542;2023-04-15T06:59:29;37.90;;;33.77;;
2019;SDS011;1014;51.960;8.542;2023-04-15T07:01:56;37.50;;;34.03;;
2019;SDS011;1014;51.960;8.542;2023-04-15T07:04:23;38.93;;;35.37;;
2019;SDS011;1014;51.960;8.542;2023-04-15T07:06:51;35.70;;;32.20;;
2019;SDS011;1014;51.960;8.542;2023-04-15T07:09:19;37.60;;;34.00;;
2019;SDS011;1014;51.960;8.542;2023-04-15T07:11:48;38.33;;;34.80;;
2019;SDS011;1014;51.960;8.542;2023-04-15T07:14:15;39.53;;;35.57;;
2019;SDS011;1014;51.960;8.542;2023-04-15T07:16:42;38.93;;;35.00;;
2019;SDS011;1014;51.960;8.542;2023-04-15T07:19:09;39.27;;;35.60;;
2019;SDS011;1014;51.960;8.542;2023-04-15T07:21:36;36.60;;;32.43;;
2019;SDS011;1014;51.960;8.542;2023-04-15T07:24:04;42.00;;;37.70;;
2019;SDS011;1014;51.960;8.542;2023-04-15T07:26:31;40.90;;;36.80;;
2019;SDS011;1014;51.960;8.542;2023-04-15T07:28:59;39.20;;;35.30;;
2019;SDS011;1014;51.960;8.542;2023-04-15T07:31:26;43.93;;;38.27;;
2019;SDS011;1014;51.960;8.542;2023-04-15T07:33:53;42.23;;;37.77;;
2019;SDS011;1014;51.960;8.542;2023-04-15T07:36:20;40.27;;;36.27;;
2019;SDS011;1014;51.960;8.542;2023-04-15T07:38:47;41.83;;;37.27;;
2019;SDS011;1014;51.960;8.542;2023-04-15T07:41:14;40.83;;;36.70;;
2019;SDS011;1014;51.960;8.542;2023-04-15T07:43:41;45.77;;;39.90;;
2019;SDS011;1014;51.960;8.542;2023-04-15T07:46:10;40.60;;;35.43;;
2019;SDS011;1014;51.960;8.542;2023-04-15T07:48:38;29.53;;;26.70;;
2019;SDS011;1014;51.960;8.542;2023-04-15T07:51:05;30.53;;;28.07;;
2019;SDS011;1014;51.960;8.542;2023-04-15T07:53:32;33.33;;;30.23;;
2019;SDS011;1014;51.960;8.542;2023-04-15T07:56:00;31.50;;;28.50;;
2019;SDS011;1014;51.960;8.542;2023-04-15T07:58:27;30.87;;;28.17;;
2019;SDS011;1014;51.960;8.542;2023-04-15T08:00:54;26.87;;;24.70;;
2019;SDS011;1014;51.960;8.542;2023-04-15T08:03:24;29.13;;;26.73;;
2019;SDS011;1014;51.960;8.542;2023-04-15T08:05:51;29.53;;;26.90;;
2019;SDS011;1014;51.960;8.542;2023-04-15T08:08:18;27.93;;;25.53;;
2019;SDS011;1014;51.960;8.542;2023-04-15T08:10:46;28.20;;;25.93;;
2019;SDS011;1014;51.960;8.542;2023-04-15T08:13:13;28.17;;;25.80;;
2019;SDS011;1014;51.960;8.542;2023-04-15T08:15:40;27.57;;;25.33;;
2019;SDS011;1014;51.960;8.542;2023-04-15T08:18:07;28.37;;;26.07;;
2019;SDS011;1014;51.960;8.542;2023-04-15T08:20:36;29.30;;;26.83;;
2019;SDS011;1014;51.960;8.542;2023-04-15T08:23:03;26.20;;;24.20;;
2019;SDS011;1014;51.960;8.542;2023-04-15T08:25:30;26.03;;;24.20;;
2019;SDS011;1014;51.960;8.542;2023-04-15T08:27:57;28.50;;;26.10;;
2019;SDS011;1014;51.960;8.542;2023-04-15T08:30:24;27.20;;;25.17;;
2019;SDS011;1014;51.960;8.542;2023-04-15T08:32:52;28.80;;;26.60;;
2019;SDS011;1014;51.960;8.542;2023-04-15T08:35:18;28.83;;;26.63;;
2019;SDS011;1014;51.960;8.542;2023-04-15T08:37:47;28.50;;;26.33;;
2019;SDS011;1014;51.960;8.542;2023-04-15T08:40:14;27.40;;;25.03;;
2019;SDS011;1014;51.960;8.542;2023-04-15T08:42:43;28.50;;;26.30;;
2019;SDS011;1014;51.960;8.542;2023-04-15T08:45:10;29.17;;;26.73;;
2019;SDS011;1014;51.960;8.542;2023-04-15T08:47:37;26.57;;;24.67;;
2019;SDS011;1014;51.960;8.542;2023-04-15T08:50:05;30.77;;;28.73;;
2019;SDS011;1014;51.960;8.542;2023-04-15T08:52:34;28.90;;;26.87;;
2019;SDS011;1014;51.960;8.542;2023-04-15T08:55:03;30.30;;;28.07;;
2019;SDS011;1014;51.960;8.542;2023-04-15T08:57:31;27.50;;;25.60;;
2019;SDS011;1014;51.960;8.542;2023-04-15T08:59:59;27.20;;;25.30;;
2019;SDS011;1014;51.960;8.542;2023-04-15T09:02:29;27.40;;;25.40;;
2019;SDS011;1014;51.960;8.542;2023-04-15T09:04:56;25.90;;;24.30;;
2019;SDS011;1014;51.960;8.542;2023-04-15T09:07:23;25.27;;;23.47;;
2019;SDS011;1014;51.960;8.542;2023-04-15T09:09:50;25.47;;;23.87;;
2019;SDS011;1014;51.960;8.542;2023-04-15T09:12:18;28.70;;;26.50;;
2019;SDS011;1014;51.960;8.542;2023-04-15T09:14:45;27.33;;;25.33;;
2019;SDS011;1014;51.960;8.542;2023-04-15T09:17:13;27.30;;;25.43;;
2019;SDS011;1014;51.960;8.542;2023-04-15T09:19:44;26.17;;;24.30;;
2019;SDS011;1014;51.960;8.542;2023-04-15T09:22:11;25.63;;;23.83;;
2019;SDS011;1014;51.960;8.542;2023-04-15T09:24:38;27.03;;;25.17;;
2019;SDS011;1014;51.960;8.542;2023-04-15T09:27:07;26.03;;;24.33;;
2019;SDS011;1014;51.960;8.542;2023-04-15T09:29:36;25.37;;;23.67;;
2019;SDS011;1014;51.960;8.542;2023-04-15T09:32:10;26.90;;;24.90;;
2019;SDS011;1014;51.960;8.542;2023-04-15T09:34:37;26.40;;;24.50;;
2019;SDS011;1014;51.960;8.542;2023-04-15T09:37:04;27.13;;;25.13;;
2019;SDS011;1014;51.960;8.542;2023-04-15T09:39:44;32.10;;;29.20;;
2019;SDS011;1014;51.960;8.542;2023-04-15T09:42:12;26.67;;;24.93;;
2019;SDS011;1014;51.960;8.542;2023-04-15T09:44:40;29.17;;;27.13;;
2019;SDS011;1014;51.960;8.542;2023-04-15T09:47:07;28.23;;;26.43;;
2019;SDS011;1014;51.960;8.542;2023-04-15T09:49:34;27.90;;;26.07;;
2019;SDS011;1014;51.960;8.542;2023-04-15T09:52:01;29.53;;;27.57;;
2019;SDS011;1014;51.960;8.542;2023-04-15T09:54:32;27.70;;;26.00;;
2019;SDS011;1014;51.960;8.542;2023-04-15T09:57:03;23.73;;;22.43;;
2019;SDS011;1014;51.960;8.542;2023-04-15T09:59:31;28.70;;;26.80;;
2019;SDS011;1014;51.960;8.542;2023-04-15T10:02:00;26.67;;;24.87;;
2019;SDS011;1014;51.960;8.542;2023-04-15T10:04:27;28.47;;;26.70;;
2019;SDS011;1014;51.960;8.542;2023-04-15T10:06:55;27.40;;;25.50;;
2019;SDS011;1014;51.960;8.542;2023-04-15T10:09:22;28.40;;;26.60;;
2019;SDS011;1014;51.960;8.542;2023-04-15T10:11:50;30.90;;;28.90;;
2019;SDS011;1014;51.960;8.542;2023-04-15T10:14:17;29.97;;;28.17;;
2019;SDS011;1014;51.960;8.542;2023-04-15T10:16:45;32.23;;;30.20;;
2019;SDS011;1014;51.960;8.542;2023-04-15T10:19:15;32.20;;;30.20;;
2019;SDS011;1014;51.960;8.542;2023-04-15T10:21:44;33.93;;;31.83;;
2019;SDS011;1014;51.960;8.542;2023-04-15T10:24:11;33.80;;;31.67;;
2019;SDS011;1014;51.960;8.542;2023-04-15T10:26:38;33.90;;;31.70;;
2019;SDS011;1014;51.960;8.542;2023-04-15T10:29:06;35.87;;;33.63;;
2019;SDS011;1014;51.960;8.542;2023-04-15T10:31:33;43.70;;;41.27;;
2019;SDS011;1014;51.960;8.542;2023-04-15T10:34:02;49.10;;;46.20;;
2019;SDS011;1014;51.960;8.542;2023-04-15T10:36:31;47.27;;;44.57;;
2019;SDS011;1014;51.960;8.542;2023-04-15T10:38:59;53.87;;;51.07;;
2019;SDS011;1014;51.960;8.542;2023-04-15T10:41:26;55.83;;;52.97;;
2019;SDS011;1014;51.960;8.542;2023-04-15T10:43:55;53.20;;;50.50;;
2019;SDS011;1014;51.960;8.542;2023-04-15T10:46:23;52.00;;;49.30;;
2019;SDS011;1014;51.960;8.542;2023-04-15T10:48:52;57.27;;;54.27;;
2019;SDS011;1014;51.960;8.542;2023-04-15T10:51:26;54.97;;;51.90;;
2019;SDS011;1014;51.960;8.542;2023-04-15T10:53:58;59.20;;;56.10;;
2019;SDS011;1014;51.960;8.542;2023-04-15T10:56:27;56.60;;;53.63;;
2019;SDS011;1014;51.960;8.542;2023-04-15T10:58:54;52.90;;;50.10;;
2019;SDS011;1014;51.960;8.542;2023-04-15T11:01:21;55.13;;;52.33;;
2019;SDS011;1014;51.960;8.542;2023-04-15T11:03:48;60.30;;;57.20;;
2019;SDS011;1014;51.960;8.542;2023-04-15T11:06:16;62.23;;;58.93;;
2019;SDS011;1014;51.960;8.542;2023-04-15T11:08:52;59.93;;;56.83;;
2019;SDS011;1014;51.960;8.542;2023-04-15T11:11:21;60.67;;;57.70;;
2019;SDS011;1014;51.960;8.542;2023-04-15T11:13:49;60.13;;;57.20;;
2019;SDS011;1014;51.960;8.542;2023-04-15T11:16:16;59.57;;;56.67;;
2019;SDS011;1014;51.960;8.542;2023-04-15T11:18:52;55.97;;;53.17;;
2019;SDS011;1014;51.960;8.542;2023-04-15T11:21:19;57.73;;;54.83;;
2019;SDS011;1014;51.960;8.542;2023-04-15T11:23:50;55.53;;;52.70;;
2019;SDS011;1014;51.960;8.542;2023-04-15T11:26:17;57.33;;;54.33;;
2019;SDS011;1014;51.960;8.542;2023-04-15T11:28:45;58.10;;;55.10;;
2019;SDS011;1014;51.960;8.542;2023-04-15T11:31:13;56.40;;;53.40;;
2019;SDS011;1014;51.960;8.542;2023-04-15T11:33:44;59.00;;;56.10;;
2019;SDS011;1014;51.960;8.542;2023-04-15T11:36:12;60.33;;;57.20;;
2019;SDS011;1014;51.960;8.542;2023-04-15T11:38:41;57.63;;;54.73;;
2019;SDS011;1014;51.960;8.542;2023-04-15T11:41:08;55.80;;;53.10;;
2019;SDS011;1014;51.960;8.542;2023-04-15T11:43:35;54.27;;;51.50;;
2019;SDS011;1014;51.960;8.542;2023-04-15T11:46:04;58.73;;;55.70;;
2019;SDS011;1014;51.960;8.542;2023-04-15T11:48:32;55.97;;;53.20;;
2019;SDS011;1014;51.960;8.542;2023-04-15T11:51:00;52.23;;;49.63;;
2019;SDS011;1014;51.960;8.542;2023-04-15T11:53:38;53.57;;;50.50;;
2019;SDS011;1014;51.960;8.542;2023-04-15T11:56:05;55.17;;;52.43;;
2019;SDS011;1014;51.960;8.542;2023-04-15T11:58:33;52.63;;;49.93;;
2019;SDS011;1014;51.960;8.542;2023-04-15T12:01:01;51.20;;;48.80;;
2019;SDS011;1014;51.960;8.542;2023-04-15T12:03:30;50.97;;;48.47;;
2019;SDS011;1014;51.960;8.542;2023-04-15T12:06:06;51.57;;;48.97;;
2019;SDS011;1014;51.960;8.542;2023-04-15T12:08:50;53.23;;;50.77;;
2019;SDS011;1014;51.960;8.542;2023-04-15T12:11:18;53.43;;;50.83;;
2019;SDS011;1014;51.960;8.542;2023-04-15T12:13:48;54.67;;;51.87;;
2019;SDS011;1014;51.960;8.542;2023-04-15T12:16:16;53.57;;;51.07;;
2019;SDS011;1014;51.960;8.542;2023-04-15T12:18:45;54.40;;;51.80;;
2019;SDS011;1014;51.960;8.542;2023-04-15T12:21:12;53.50;;;50.90;;
2019;SDS011;1014;51.960;8.542;2023-04-15T12:23:46;50.57;;;48.17;;
2019;SDS011;1014;51.960;8.542;2023-04-15T12:26:14;51.70;;;49.20;;
2019;SDS011;1014;51.960;8.542;2023-04-15T12:28:41;49.33;;;47.00;;
2019;SDS011;1014;51.960;8.542;2023-04-15T12:31:08;50.17;;;47.67;;
2019;SDS011;1014;51.960;8.542;2023-04-15T12:33:35;49.33;;;46.90;;
2019;SDS011;1014;51.960;8.542;2023-04-15T12:36:04;53.10;;;50.30;;
2019;SDS011;1014;51.960;8.542;2023-04-15T12:38:32;54.03;;;51.40;;
2019;SDS011;1014;51.960;8.542;2023-04-15T12:40:59;52.73;;;50.03;;
2019;SDS011;1014;51.960;8.542;2023-04-15T12:43:26;53.00;;;50.20;;
2019;SDS011;1014;51.960;8.542;2023-04-15T12:45:54;53.93;;;51.23;;
2019;SDS011;1014;51.960;8.542;2023-04-15T12:48:21;52.97;;;50.37;;
2019;SDS011;1014;51.960;8.542;2023-04-15T12:50:48;50.43;;;47.40;;
2019;SDS011;1014;51.960;8.542;2023-04-15T12:53:16;51.70;;;49.10;;
2019;SDS011;1014;51.960;8.542;2023-04-15T12:55:43;47.77;;;45.40;;
2019;SDS011;1014;51.960;8.542;2023-04-15T12:58:11;48.43;;;46.03;;
2019;SDS011;1014;51.960;8.542;2023-04-15T13:00:38;50.43;;;48.00;;
2019;SDS011;1014;51.960;8.542;2023-04-15T13:03:05;50.57;;;48.10;;
2019;SDS011;1014;51.960;8.542;2023-04-15T13:05:32;48.90;;;46.60;;
2019;SDS011;1014;51.960;8.542;2023-04-15T13:08:00;50.23;;;47.83;;
2019;SDS011;1014;51.960;8.542;2023-04-15T13:10:29;48.13;;;45.93;;
2019;SDS011;1014;51.960;8.542;2023-04-15T13:12:56;47.90;;;45.73;;
2019;SDS011;1014;51.960;8.542;2023-04-15T13:15:24;48.37;;;46.10;;
2019;SDS011;1014;51.960;8.542;2023-04-15T13:17:51;46.70;;;44.60;;
2019;SDS011;1014;51.960;8.542;2023-04-15T13:20:18;48.90;;;46.60;;
2019;SDS011;1014;51.960;8.542;2023-04-15T13:22:45;44.80;;;42.80;;
2019;SDS011;1014;51.960;8.542;2023-04-15T13:25:12;37.33;;;35.60;;
2019;SDS011;1014;51.960;8.542;2023-04-15T13:27:40;37.07;;;35.37;;
2019;SDS011;1014;51.960;8.542;2023-04-15T13:30:08;36.23;;;34.53;;
2019;SDS011;1014;51.960;8.542;2023-04-15T13:32:35;40.53;;;38.53;;
2019;SDS011;1014;51.960;8.542;2023-04-15T13:35:02;37.97;;;36.17;;
2019;SDS011;1014;51.960;8.542;2023-04-15T13:37:29;40.83;;;38.73;;
2019;SDS011;1014;51.960;8.542;2023-04-15T13:39:56;40.50;;;38.40;;
2019;SDS011;1014;51.960;8.542;2023-04-15T13:42:23;40.73;;;38.83;;
2019;SDS011;1014;51.960;8.542;2023-04-15T13:44:52;39.63;;;37.43;;
2019;SDS011;1014;51.960;8.542;2023-04-15T13:47:19;41.50;;;39.30;;
2019;SDS011;1014;51.960;8.542;2023-04-15T13:49:46;42.60;;;40.40;;
2019;SDS011;1014;51.960;8.542;2023-04-15T13:52:13;42.23;;;39.90;;
2019;SDS011;1014;51.960;8.542;2023-04-15T13:54:40;44.67;;;42.20;;
2019;SDS011;1014;51.960;8.542;2023-04-15T13:57:07;43.30;;;40.90;;
2019;SDS011;1014;51.960;8.542;2023-04-15T13:59:34;44.57;;;42.27;;
2019;SDS011;1014;51.960;8.542;2023-04-15T14:02:03;40.90;;;38.80;;
2019;SDS011;1014;51.960;8.542;2023-04-15T14:04:30;45.30;;;42.83;;
2019;SDS011;1014;51.960;8.542;2023-04-15T14:06:57;44.97;;;42.47;;
2019;SDS011;1014;51.960;8.542;2023-04-15T14:09:24;43.23;;;40.67;;
2019;SDS011;1014;51.960;8.542;2023-04-15T14:11:51;44.07;;;41.40;;
2019;SDS011;1014;51.960;8.542;2023-04-15T14:14:18;43.47;;;40.87;;
2019;SDS011;1014;51.960;8.542;2023-04-15T14:16:45;41.63;;;39.30;;
2019;SDS011;1014;51.960;8.542;2023-04-15T14:19:14;42.30;;;40.00;;
2019;SDS011;1014;51.960;8.542;2023-04-15T14:21:41;43.63;;;40.97;;
2019;SDS011;1014;51.960;8.542;2023-04-15T14:24:09;45.83;;;42.97;;
2019;SDS011;1014;51.960;8.542;2023-04-15T14:26:37;47.53;;;44.63;;
2019;SDS011;1014;51.960;8.542;2023-04-15T14:29:04;45.90;;;43.10;;
2019;SDS011;1014;51.960;8.542;2023-04-15T14:31:31;44.70;;;42.20;;
2019;SDS011;1014;51.960;8.542;2023-04-15T14:33:58;41.07;;;38.93;;
2019;SDS011;1014;51.960;8.542;2023-04-15T14:36:26;42.97;;;40.43;;
2019;SDS011;1014;51.960;8.542;2023-04-15T14:38:53;42.53;;;39.97;;
2019;SDS011;1014;51.960;8.542;2023-04-15T14:41:20;44.40;;;41.40;;
2019;SDS011;1014;51.960;8.542;2023-04-15T14:43:47;49.43;;;46.23;;
2019;SDS011;1014;51.960;8.542;2023-04-15T14:46:15;47.73;;;44.50;;
2019;SDS011;1014;51.960;8.542;2023-04-15T14:48:42;54.33;;;50.80;;
2019;SDS011;1014;51.960;8.542;2023-04-15T14:51:09;49.00;;;45.90;;